Time,TemperatureF,DewpointF,PressureIn,WindDirection,WindDirectionDegrees,WindSpeedMPH,WindSpeedGustMPH,Humidity,HourlyPrecipIn,Conditions,Clouds,dailyrainin,SoftwareType,DateUTC
2013-01-06 00:00:00,44.7,39.9,30.10,NW,304,1.0,2.0,83,0.00,,,0.00,Wunderground v.1.15,2013-01-06 08:00:00,
2013-01-06 00:05:00,44.7,39.9,30.10,NW,304,1.0,2.0,83,0.00,,,0.00,Wunderground v.1.15,2013-01-06 08:05:00,
2013-01-06 00:10:00,44.6,39.8,30.10,NW,304,0.0,0.0,83,0.00,,,0.00,Wunderground v.1.15,2013-01-06 08:10:00,
2013-01-06 00:16:00,44.3,39.5,30.09,NW,304,0.0,0.0,83,0.00,,,0.00,Wunderground v.1.15,2013-01-06 08:16:00,
2013-01-06 00:30:00,44.0,39.2,30.09,NW,304,0.0,0.0,83,0.00,,,0.00,Wunderground v.1.15,2013-01-06 08:30:00,
2013-01-06 00:35:00,43.9,39.1,30.09,NW,304,0.0,0.0,83,0.00,,,0.00,Wunderground v.1.15,2013-01-06 08:35:00,
2013-01-06 00:45:00,43.9,39.4,30.09,NE,47,1.0,1.0,84,0.00,,,0.00,Wunderground v.1.15,2013-01-06 08:45:00,
2013-01-06 00:50:00,43.9,39.4,30.09,NE,47,1.0,1.0,84,0.00,,,0.00,Wunderground v.1.15,2013-01-06 08:50:00,
2013-01-06 00:56:00,43.9,39.4,30.09,NE,47,0.0,0.0,84,0.00,,,0.00,Wunderground v.1.15,2013-01-06 08:56:00,
2013-01-06 01:10:00,43.6,39.4,30.09,NE,47,0.0,0.0,85,0.00,,,0.00,Wunderground v.1.15,2013-01-06 09:10:00,
2013-01-06 01:15:00,43.7,39.5,30.09,NE,47,0.0,0.0,85,0.00,,,0.00,Wunderground v.1.15,2013-01-06 09:15:00,
2013-01-06 01:25:00,43.6,39.4,30.09,NE,47,0.0,0.0,85,0.00,,,0.00,Wunderground v.1.15,2013-01-06 09:25:00,
2013-01-06 01:45:00,43.7,39.8,30.09,NE,47,0.0,0.0,86,0.00,,,0.00,Wunderground v.1.15,2013-01-06 09:45:00,
2013-01-06 01:50:00,43.9,40.0,30.09,NE,47,0.0,0.0,86,0.00,,,0.00,Wunderground v.1.15,2013-01-06 09:50:00,
2013-01-06 02:00:00,44.3,40.4,30.08,NE,47,0.0,0.0,86,0.00,,,0.00,Wunderground v.1.15,2013-01-06 10:00:00,
2013-01-06 02:10:00,44.9,41.0,30.08,East,92,1.0,1.0,86,0.00,,,0.00,Wunderground v.1.15,2013-01-06 10:10:00,
2013-01-06 02:30:00,45.8,41.5,30.07,East,90,1.0,1.0,85,0.00,,,0.00,Wunderground v.1.15,2013-01-06 10:30:00,
2013-01-06 02:35:00,45.9,41.6,30.07,East,92,1.0,1.0,85,0.00,,,0.00,Wunderground v.1.15,2013-01-06 10:35:00,
2013-01-06 02:45:00,46.1,41.5,30.08,East,90,1.0,1.0,84,0.00,,,0.00,Wunderground v.1.15,2013-01-06 10:45:00,
2013-01-06 02:50:00,46.4,41.8,30.08,East,92,2.0,2.0,84,0.00,,,0.00,Wunderground v.1.15,2013-01-06 10:50:00,
2013-01-06 03:10:00,46.5,41.9,30.08,East,92,0.0,0.0,84,0.00,,,0.00,Wunderground v.1.15,2013-01-06 11:10:00,
2013-01-06 03:15:00,46.8,42.2,30.09,West,267,1.0,2.0,84,0.00,,,0.00,Wunderground v.1.15,2013-01-06 11:15:00,
2013-01-06 03:20:00,46.7,42.1,30.09,SW,236,1.0,1.0,84,0.00,,,0.00,Wunderground v.1.15,2013-01-06 11:20:00,
2013-01-06 03:25:00,46.7,42.1,30.09,SW,236,2.0,2.0,84,0.00,,,0.00,Wunderground v.1.15,2013-01-06 11:25:00,
2013-01-06 03:30:00,46.8,42.5,30.08,NW,308,1.0,2.0,85,0.00,,,0.00,Wunderground v.1.15,2013-01-06 11:30:00,
2013-01-06 03:50:00,46.8,42.8,30.08,NW,308,0.0,0.0,86,0.00,,,0.00,Wunderground v.1.15,2013-01-06 11:50:00,
2013-01-06 03:55:00,46.8,43.1,30.08,NW,308,0.0,0.0,87,0.00,,,0.00,Wunderground v.1.15,2013-01-06 11:55:00,
2013-01-06 04:05:00,46.8,43.1,30.08,NW,323,1.0,3.0,87,0.00,,,0.01,Wunderground v.1.15,2013-01-06 12:05:00,
2013-01-06 04:10:00,47.1,43.7,30.08,NNW,328,2.0,2.0,88,0.05,,,0.02,Wunderground v.1.15,2013-01-06 12:10:00,
2013-01-06 04:15:00,47.3,43.9,30.09,NNW,339,3.0,6.0,88,0.05,,,0.02,Wunderground v.1.15,2013-01-06 12:15:00,
2013-01-06 04:20:00,47.3,44.2,30.09,NW,315,4.0,4.0,89,0.06,,,0.03,Wunderground v.1.15,2013-01-06 12:20:00,
2013-01-06 04:40:00,47.6,44.8,30.08,NE,37,1.0,1.0,90,0.04,,,0.04,Wunderground v.1.15,2013-01-06 12:40:00,
2013-01-06 04:45:00,47.6,44.8,30.07,NE,37,1.0,1.0,90,0.00,,,0.05,Wunderground v.1.15,2013-01-06 12:45:00,
2013-01-06 04:50:00,47.6,44.8,30.07,NE,37,0.0,0.0,90,0.00,,,0.05,Wunderground v.1.15,2013-01-06 12:50:00,
2013-01-06 05:00:00,47.3,44.5,30.07,NE,37,0.0,0.0,90,0.00,,,0.05,Wunderground v.1.15,2013-01-06 13:00:00,
2013-01-06 05:21:00,46.7,44.2,30.07,NE,37,0.0,0.0,91,0.00,,,0.05,Wunderground v.1.15,2013-01-06 13:21:00,
2013-01-06 05:25:00,46.5,44.0,30.07,NE,37,0.0,0.0,91,0.00,,,0.05,Wunderground v.1.15,2013-01-06 13:25:00,
2013-01-06 05:30:00,46.4,43.9,30.07,NE,37,0.0,0.0,91,0.00,,,0.05,Wunderground v.1.15,2013-01-06 13:30:00,
2013-01-06 05:35:00,46.2,43.7,30.07,NE,37,0.0,0.0,91,0.00,,,0.05,Wunderground v.1.15,2013-01-06 13:35:00,
2013-01-06 05:40:00,46.1,43.6,30.07,NE,37,0.0,0.0,91,0.00,,,0.05,Wunderground v.1.15,2013-01-06 13:40:00,
2013-01-06 05:45:00,46.1,43.6,30.07,NE,37,0.0,2.0,91,0.00,,,0.05,Wunderground v.1.15,2013-01-06 13:45:00,
2013-01-06 06:01:00,46.1,43.6,30.07,NE,37,0.0,0.0,91,0.00,,,0.05,Wunderground v.1.15,2013-01-06 14:01:00,
2013-01-06 06:05:00,46.1,43.6,30.07,NE,37,0.0,0.0,91,0.00,,,0.05,Wunderground v.1.15,2013-01-06 14:05:00,
2013-01-06 06:10:00,45.9,43.7,30.07,NE,37,0.0,0.0,92,0.00,,,0.05,Wunderground v.1.15,2013-01-06 14:10:00,
2013-01-06 06:15:00,46.1,43.9,30.08,NE,37,0.0,0.0,92,0.00,,,0.05,Wunderground v.1.15,2013-01-06 14:15:00,
2013-01-06 06:20:00,46.1,43.9,30.08,NE,37,0.0,0.0,92,0.00,,,0.05,Wunderground v.1.15,2013-01-06 14:20:00,
2013-01-06 06:35:00,45.9,43.7,30.09,NE,37,0.0,0.0,92,0.00,,,0.05,Wunderground v.1.15,2013-01-06 14:35:00,
2013-01-06 06:45:00,46.1,43.9,30.09,NE,37,0.0,0.0,92,0.00,,,0.05,Wunderground v.1.15,2013-01-06 14:45:00,
2013-01-06 06:55:00,45.9,43.7,30.09,NE,37,0.0,0.0,92,0.00,,,0.05,Wunderground v.1.15,2013-01-06 14:55:00,
2013-01-06 07:00:00,45.9,43.7,30.10,NE,37,0.0,0.0,92,0.00,,,0.05,Wunderground v.1.15,2013-01-06 15:00:00,
2013-01-06 07:05:00,45.8,43.9,30.10,NE,37,0.0,0.0,93,0.00,,,0.05,Wunderground v.1.15,2013-01-06 15:05:00,
2013-01-06 07:25:00,45.5,43.6,30.09,NE,37,0.0,1.0,93,0.00,,,0.05,Wunderground v.1.15,2013-01-06 15:25:00,
2013-01-06 07:30:00,45.5,43.6,30.09,NE,37,0.0,1.0,93,0.00,,,0.05,Wunderground v.1.15,2013-01-06 15:30:00,
2013-01-06 07:40:00,45.5,43.6,30.09,NE,37,0.0,0.0,93,0.00,,,0.05,Wunderground v.1.15,2013-01-06 15:40:00,
2013-01-06 07:50:00,46.4,44.8,30.09,NE,37,0.0,0.0,94,0.00,,,0.05,Wunderground v.1.15,2013-01-06 15:50:00,
2013-01-06 08:10:00,48.3,46.7,30.09,ESE,113,1.0,1.0,94,0.00,,,0.05,Wunderground v.1.15,2013-01-06 16:10:00,
2013-01-06 08:15:00,48.4,46.8,30.09,ESE,113,1.0,1.0,94,0.00,,,0.05,Wunderground v.1.15,2013-01-06 16:15:00,
2013-01-06 08:20:00,48.7,47.1,30.09,ESE,113,1.0,2.0,94,0.00,,,0.05,Wunderground v.1.15,2013-01-06 16:20:00,
2013-01-06 08:30:00,49.3,47.4,30.09,ESE,113,1.0,1.0,93,0.00,,,0.05,Wunderground v.1.15,2013-01-06 16:30:00,
2013-01-06 08:40:00,49.9,48.0,30.09,ESE,113,1.0,1.0,93,0.00,,,0.05,Wunderground v.1.15,2013-01-06 16:40:00,
2013-01-06 08:55:00,50.1,48.2,30.09,ESE,113,0.0,0.0,93,0.00,,,0.05,Wunderground v.1.15,2013-01-06 16:55:00,
2013-01-06 09:00:00,50.4,48.5,30.09,ESE,113,0.0,0.0,93,0.00,,,0.05,Wunderground v.1.15,2013-01-06 17:00:00,
2013-01-06 09:05:00,50.8,48.8,30.09,ESE,113,1.0,2.0,93,0.00,,,0.05,Wunderground v.1.15,2013-01-06 17:05:00,
2013-01-06 09:10:00,50.8,48.8,30.09,ESE,113,1.0,1.0,93,0.00,,,0.05,Wunderground v.1.15,2013-01-06 17:10:00,
2013-01-06 09:15:00,50.8,48.8,30.10,NE,41,1.0,2.0,93,0.00,,,0.05,Wunderground v.1.15,2013-01-06 17:15:00,
2013-01-06 09:35:00,50.7,48.5,30.09,NNW,335,0.0,1.0,92,0.00,,,0.05,Wunderground v.1.15,2013-01-06 17:35:00,
2013-01-06 09:40:00,50.8,48.3,30.09,NNW,335,0.0,1.0,91,0.00,,,0.05,Wunderground v.1.15,2013-01-06 17:40:00,
2013-01-06 09:45:00,51.1,48.9,30.09,NNW,335,0.0,0.0,92,0.00,,,0.05,Wunderground v.1.15,2013-01-06 17:45:00,
2013-01-06 09:55:00,51.8,49.0,30.09,ENE,64,1.0,1.0,90,0.00,,,0.05,Wunderground v.1.15,2013-01-06 17:55:00,
2013-01-06 10:05:00,52.1,49.0,30.09,West,264,1.0,2.0,89,0.00,,,0.05,Wunderground v.1.15,2013-01-06 18:05:00,
2013-01-06 10:30:00,53.0,46.3,30.08,NW,325,3.0,3.0,78,0.00,,,0.05,Wunderground v.1.15,2013-01-06 18:30:00,
2013-01-06 10:35:00,53.2,45.5,30.08,NW,312,3.0,3.0,75,0.00,,,0.05,Wunderground v.1.15,2013-01-06 18:35:00,
2013-01-06 10:40:00,53.9,46.2,30.08,NW,312,2.0,2.0,75,0.00,,,0.05,Wunderground v.1.15,2013-01-06 18:40:00,
2013-01-06 10:45:00,54.4,45.6,30.07,WNW,282,2.0,3.0,72,0.00,,,0.05,Wunderground v.1.15,2013-01-06 18:45:00,
2013-01-06 10:50:00,54.5,45.3,30.07,SW,227,5.0,6.0,71,0.00,,,0.05,Wunderground v.1.15,2013-01-06 18:50:00,
2013-01-06 10:55:00,54.2,44.2,30.07,SW,217,6.0,6.0,69,0.00,,,0.05,Wunderground v.1.15,2013-01-06 18:55:00,
2013-01-06 11:00:00,54.1,44.5,30.07,WSW,254,6.0,6.0,70,0.00,,,0.05,Wunderground v.1.15,2013-01-06 19:00:00,
2013-01-06 11:05:00,53.9,44.0,30.07,WSW,253,5.0,6.0,69,0.00,,,0.05,Wunderground v.1.15,2013-01-06 19:05:00,
2013-01-06 11:10:00,53.8,44.2,30.07,SW,223,5.0,5.0,70,0.00,,,0.05,Wunderground v.1.15,2013-01-06 19:10:00,
2013-01-06 11:15:00,53.9,44.7,30.06,West,272,4.0,5.0,71,0.00,,,0.05,Wunderground v.1.15,2013-01-06 19:15:00,
2013-01-06 11:20:00,54.1,45.3,30.06,SSW,200,3.0,3.0,72,0.00,,,0.05,Wunderground v.1.15,2013-01-06 19:20:00,
2013-01-06 11:25:00,54.2,45.4,30.06,South,186,2.0,4.0,72,0.00,,,0.05,Wunderground v.1.15,2013-01-06 19:25:00,
2013-01-06 11:30:00,54.7,45.8,30.05,SW,215,3.0,3.0,72,0.00,,,0.05,Wunderground v.1.15,2013-01-06 19:30:00,
2013-01-06 11:35:00,55.5,46.2,30.05,SSW,203,5.0,8.0,71,0.00,,,0.05,Wunderground v.1.15,2013-01-06 19:35:00,
2013-01-06 11:40:00,56.1,46.4,30.05,SW,233,6.0,6.0,70,0.00,,,0.05,Wunderground v.1.15,2013-01-06 19:40:00,
2013-01-06 11:45:00,56.5,46.8,30.04,South,169,6.0,8.0,70,0.00,,,0.05,Wunderground v.1.15,2013-01-06 19:45:00,
2013-01-06 11:55:00,56.8,45.6,30.04,SW,222,8.0,8.0,66,0.00,,,0.05,Wunderground v.1.15,2013-01-06 19:55:00,
2013-01-06 12:05:00,56.0,43.2,30.04,WSW,247,7.0,13.0,62,0.00,,,0.05,Wunderground v.1.15,2013-01-06 20:05:00,
2013-01-06 12:15:00,55.4,41.3,30.03,WNW,295,8.0,9.0,59,0.00,,,0.05,Wunderground v.1.15,2013-01-06 20:15:00,
2013-01-06 12:25:00,55.2,41.1,30.03,NW,305,8.0,14.0,59,0.00,,,0.05,Wunderground v.1.15,2013-01-06 20:25:00,
2013-01-06 12:30:00,55.1,41.0,30.03,West,278,9.0,11.0,59,0.00,,,0.05,Wunderground v.1.15,2013-01-06 20:30:00,
2013-01-06 12:35:00,55.0,41.4,30.03,West,271,9.0,11.0,60,0.00,,,0.05,Wunderground v.1.15,2013-01-06 20:35:00,
2013-01-06 12:51:00,55.1,41.0,30.02,West,272,9.0,12.0,59,0.00,,,0.05,Wunderground v.1.15,2013-01-06 20:51:00,
2013-01-06 12:56:00,55.5,41.0,30.02,WSW,248,10.0,12.0,58,0.00,,,0.05,Wunderground v.1.15,2013-01-06 20:56:00,
2013-01-06 13:05:00,56.1,41.1,30.01,West,272,10.0,11.0,57,0.00,,,0.05,Wunderground v.1.15,2013-01-06 21:05:00,
2013-01-06 13:10:00,56.3,40.8,30.01,West,264,11.0,11.0,56,0.00,,,0.05,Wunderground v.1.15,2013-01-06 21:10:00,
2013-01-06 13:15:00,56.1,40.6,30.00,West,274,11.0,11.0,56,0.00,,,0.05,Wunderground v.1.15,2013-01-06 21:15:00,
2013-01-06 13:25:00,56.1,41.1,30.00,NW,311,8.0,8.0,57,0.00,,,0.05,Wunderground v.1.15,2013-01-06 21:25:00,
2013-01-06 13:30:00,56.0,41.0,30.00,NW,315,8.0,8.0,57,0.00,,,0.05,Wunderground v.1.15,2013-01-06 21:30:00,
2013-01-06 13:50:00,56.5,41.4,30.00,WSW,240,10.0,11.0,57,0.00,,,0.05,Wunderground v.1.15,2013-01-06 21:50:00,
2013-01-06 14:00:00,56.3,40.3,29.99,West,271,11.0,11.0,55,0.00,,,0.05,Wunderground v.1.15,2013-01-06 22:00:00,
2013-01-06 14:05:00,56.3,40.8,29.99,SW,226,10.0,11.0,56,0.00,,,0.05,Wunderground v.1.15,2013-01-06 22:05:00,
2013-01-06 14:10:00,56.3,40.3,29.99,WNW,282,9.0,9.0,55,0.00,,,0.05,Wunderground v.1.15,2013-01-06 22:10:00,
2013-01-06 14:15:00,56.3,39.9,29.98,West,268,10.0,11.0,54,0.00,,,0.05,Wunderground v.1.15,2013-01-06 22:15:00,
2013-01-06 14:20:00,56.3,40.8,29.98,NW,319,10.0,10.0,56,0.00,,,0.05,Wunderground v.1.15,2013-01-06 22:20:00,
2013-01-06 14:41:00,56.3,40.8,29.98,West,281,10.0,13.0,56,0.00,,,0.05,Wunderground v.1.15,2013-01-06 22:41:00,
2013-01-06 14:45:00,56.1,40.1,29.98,WNW,291,11.0,13.0,55,0.00,,,0.05,Wunderground v.1.15,2013-01-06 22:45:00,
2013-01-06 15:05:00,54.4,40.8,29.98,West,265,10.0,10.0,60,0.00,,,0.05,Wunderground v.1.15,2013-01-06 23:05:00,
2013-01-06 15:10:00,54.7,41.1,29.98,West,264,10.0,10.0,60,0.00,,,0.05,Wunderground v.1.15,2013-01-06 23:10:00,
2013-01-06 15:15:00,54.7,41.5,29.98,West,267,10.0,13.0,61,0.00,,,0.05,Wunderground v.1.15,2013-01-06 23:15:00,
2013-01-06 15:20:00,54.4,41.6,29.98,WNW,295,9.0,13.0,62,0.00,,,0.05,Wunderground v.1.15,2013-01-06 23:20:00,
2013-01-06 15:25:00,54.2,41.5,29.98,WNW,291,8.0,12.0,62,0.00,,,0.05,Wunderground v.1.15,2013-01-06 23:25:00,
2013-01-06 15:30:00,53.8,40.7,29.98,WSW,248,8.0,13.0,61,0.00,,,0.05,Wunderground v.1.15,2013-01-06 23:30:00,
2013-01-06 15:35:00,53.5,40.4,29.98,NW,323,10.0,10.0,61,0.00,,,0.05,Wunderground v.1.15,2013-01-06 23:35:00,
2013-01-06 15:40:00,53.9,40.3,29.98,WSW,237,9.0,10.0,60,0.00,,,0.05,Wunderground v.1.15,2013-01-06 23:40:00,
2013-01-06 15:45:00,54.4,40.4,29.98,SSW,213,9.0,9.0,59,0.00,,,0.05,Wunderground v.1.15,2013-01-06 23:45:00,
2013-01-06 15:50:00,54.5,40.5,29.98,WSW,256,8.0,12.0,59,0.00,,,0.05,Wunderground v.1.15,2013-01-06 23:50:00,
2013-01-06 15:55:00,54.1,40.5,29.98,WSW,237,8.0,13.0,60,0.00,,,0.05,Wunderground v.1.15,2013-01-06 23:55:00,
2013-01-06 16:00:00,53.6,40.5,29.97,WSW,247,7.0,7.0,61,0.00,,,0.05,Wunderground v.1.15,2013-01-07 00:00:00,
2013-01-06 16:05:00,53.3,40.6,29.97,West,274,6.0,7.0,62,0.00,,,0.05,Wunderground v.1.15,2013-01-07 00:05:00,
2013-01-06 16:10:00,53.0,40.3,29.97,West,264,6.0,6.0,62,0.00,,,0.05,Wunderground v.1.15,2013-01-07 00:10:00,
2013-01-06 16:15:00,52.9,40.6,29.97,SW,223,7.0,7.0,63,0.00,,,0.05,Wunderground v.1.15,2013-01-07 00:15:00,
2013-01-06 16:20:00,52.7,40.9,29.97,WSW,257,6.0,6.0,64,0.00,,,0.05,Wunderground v.1.15,2013-01-07 00:20:00,
2013-01-06 16:25:00,52.7,41.3,29.97,SW,224,5.0,6.0,65,0.00,,,0.05,Wunderground v.1.15,2013-01-07 00:25:00,
2013-01-06 16:30:00,52.7,41.7,29.96,WSW,258,5.0,6.0,66,0.00,,,0.05,Wunderground v.1.15,2013-01-07 00:30:00,
2013-01-06 16:35:00,52.6,42.3,29.96,WSW,241,6.0,6.0,68,0.00,,,0.05,Wunderground v.1.15,2013-01-07 00:35:00,
2013-01-06 16:41:00,52.4,42.9,29.96,SW,226,6.0,6.0,70,0.00,,,0.05,Wunderground v.1.15,2013-01-07 00:41:00,
2013-01-06 17:15:00,52.0,44.3,29.95,WSW,240,3.0,4.0,75,0.00,,,0.05,Wunderground v.1.15,2013-01-07 01:15:00,
2013-01-06 17:20:00,52.0,44.7,29.95,WSW,251,2.0,4.0,76,0.00,,,0.05,Wunderground v.1.15,2013-01-07 01:20:00,
2013-01-06 17:25:00,51.8,44.5,29.95,WSW,251,1.0,1.0,76,0.00,,,0.05,Wunderground v.1.15,2013-01-07 01:25:00,
2013-01-06 17:45:00,51.3,44.3,29.95,WSW,251,0.0,0.0,77,0.00,,,0.05,Wunderground v.1.15,2013-01-07 01:45:00,
2013-01-06 17:50:00,51.0,44.4,29.95,WSW,246,0.0,0.0,78,0.00,,,0.05,Wunderground v.1.15,2013-01-07 01:50:00,
2013-01-06 17:56:00,51.0,44.4,29.95,WSW,246,0.0,1.0,78,0.00,,,0.05,Wunderground v.1.15,2013-01-07 01:56:00,
2013-01-06 18:40:00,50.7,44.4,29.94,WSW,246,0.0,0.0,79,0.00,,,0.05,Wunderground v.1.15,2013-01-07 02:40:00,
2013-01-06 18:45:00,50.7,44.4,29.94,WSW,246,0.0,0.0,79,0.00,,,0.05,Wunderground v.1.15,2013-01-07 02:45:00,
2013-01-06 18:50:00,50.8,44.5,29.94,WSW,246,0.0,0.0,79,0.00,,,0.05,Wunderground v.1.15,2013-01-07 02:50:00,
2013-01-06 19:10:00,50.8,44.5,29.94,WSW,246,0.0,0.0,79,0.00,,,0.05,Wunderground v.1.15,2013-01-07 03:10:00,
2013-01-06 19:15:00,50.8,44.5,29.94,WSW,246,0.0,0.0,79,0.00,,,0.05,Wunderground v.1.15,2013-01-07 03:15:00,
2013-01-06 19:20:00,50.8,44.5,29.94,WSW,246,0.0,0.0,79,0.00,,,0.05,Wunderground v.1.15,2013-01-07 03:20:00,
2013-01-06 19:25:00,50.8,44.9,29.94,WSW,246,0.0,0.0,80,0.00,,,0.05,Wunderground v.1.15,2013-01-07 03:25:00,
2013-01-06 19:40:00,50.8,44.9,29.94,WSW,246,0.0,0.0,80,0.00,,,0.05,Wunderground v.1.15,2013-01-07 03:40:00,
2013-01-06 19:45:00,50.7,44.8,29.93,WSW,246,0.0,0.0,80,0.00,,,0.05,Wunderground v.1.15,2013-01-07 03:45:00,
2013-01-06 19:50:00,50.7,44.8,29.93,WSW,246,0.0,2.0,80,0.00,,,0.05,Wunderground v.1.15,2013-01-07 03:50:00,
2013-01-06 19:55:00,50.5,44.6,29.93,WSW,246,0.0,2.0,80,0.00,,,0.05,Wunderground v.1.15,2013-01-07 03:55:00,
2013-01-06 20:00:00,50.4,44.5,29.93,WSW,246,0.0,0.0,80,0.00,,,0.05,Wunderground v.1.15,2013-01-07 04:00:00,
2013-01-06 20:05:00,50.2,44.3,29.93,WSW,246,0.0,0.0,80,0.00,,,0.05,Wunderground v.1.15,2013-01-07 04:05:00,
2013-01-06 20:11:00,49.9,44.0,29.93,WSW,246,0.0,0.0,80,0.00,,,0.05,Wunderground v.1.15,2013-01-07 04:11:00,
2013-01-06 20:20:00,49.5,43.6,29.93,WSW,246,0.0,0.0,80,0.00,,,0.05,Wunderground v.1.15,2013-01-07 04:20:00,
2013-01-06 20:26:00,49.2,43.3,29.93,WSW,246,0.0,0.0,80,0.00,,,0.05,Wunderground v.1.15,2013-01-07 04:26:00,
2013-01-06 21:15:00,48.7,44.1,29.93,WSW,246,1.0,1.0,84,0.00,,,0.05,Wunderground v.1.15,2013-01-07 05:15:00,
2013-01-06 21:20:00,48.9,44.6,29.93,WSW,246,1.0,1.0,85,0.00,,,0.05,Wunderground v.1.15,2013-01-07 05:20:00,
2013-01-06 21:35:00,49.2,44.9,29.93,East,89,1.0,1.0,85,0.00,,,0.05,Wunderground v.1.15,2013-01-07 05:35:00,
2013-01-06 21:50:00,49.2,45.2,29.92,East,89,1.0,1.0,86,0.00,,,0.05,Wunderground v.1.15,2013-01-07 05:50:00,
2013-01-06 21:55:00,49.2,45.2,29.92,East,89,1.0,1.0,86,0.00,,,0.05,Wunderground v.1.15,2013-01-07 05:55:00,
2013-01-06 22:05:00,49.0,45.0,29.92,East,89,1.0,1.0,86,0.00,,,0.05,Wunderground v.1.15,2013-01-07 06:05:00,
2013-01-06 22:10:00,48.9,44.9,29.92,East,89,1.0,1.0,86,0.00,,,0.05,Wunderground v.1.15,2013-01-07 06:10:00,
2013-01-06 22:20:00,48.4,44.4,29.92,East,89,0.0,0.0,86,0.00,,,0.05,Wunderground v.1.15,2013-01-07 06:20:00,
2013-01-06 22:35:00,47.7,43.7,29.92,East,89,0.0,0.0,86,0.00,,,0.05,Wunderground v.1.15,2013-01-07 06:35:00,
2013-01-06 22:50:00,46.8,43.1,29.93,East,89,0.0,1.0,87,0.00,,,0.05,Wunderground v.1.15,2013-01-07 06:50:00,
2013-01-06 22:55:00,46.7,43.0,29.93,East,89,1.0,1.0,87,0.00,,,0.05,Wunderground v.1.15,2013-01-07 06:55:00,
2013-01-06 23:00:00,46.5,42.8,29.93,East,89,1.0,1.0,87,0.00,,,0.05,Wunderground v.1.15,2013-01-07 07:00:00,
2013-01-06 23:10:00,46.1,42.4,29.93,East,89,0.0,0.0,87,0.00,,,0.05,Wunderground v.1.15,2013-01-07 07:10:00,
2013-01-06 23:25:00,46.1,42.7,29.93,East,88,0.0,0.0,88,0.00,,,0.05,Wunderground v.1.15,2013-01-07 07:25:00,
2013-01-06 23:30:00,45.9,42.5,29.93,East,88,0.0,2.0,88,0.00,,,0.05,Wunderground v.1.15,2013-01-07 07:30:00,
2013-01-06 23:40:00,45.3,42.0,29.93,East,89,0.0,1.0,88,0.00,,,0.05,Wunderground v.1.15,2013-01-07 07:40:00,
2013-01-06 23:55:00,44.9,41.6,29.93,East,89,0.0,0.0,88,0.00,,,0.05,Wunderground v.1.15,2013-01-07 07:55:00,